Coosaw, South Carolina
Current Conditions -  °F | °C
As of 5:38 AM on Sunday 21 Dec 2014 (Local Time) from KNBC Reporting Station
Overcast Overcast  
Wind Chill: 43°   Ceiling: 4100
Heat Index: 48°   Visibility: 10mi
Dew Point: 45°   Wind: 10mph
Humidity: 89%   Direction: 10°N
Pressure: 30.19"   Gusts: NA
Location:  32.5229°N, 80.7459°W
Report Text: KNBC 211038Z AUTO 01009KT 10SM SCT007 BKN041 OVC100 09/07 A3019 RMK AO2 RAB21E33 P0000 T00890072 $
Loading
Personal Weather Stations






























Interactive Weather Map New forecast layout! Learn more

10-Day Weather Forecast

Advertisements
Track Severe Weather on mobile